createdAt,value
2023-03-27T00:01:00.426Z,99384.88
2023-03-27T00:02:03.023Z,99384.19
2023-03-27T00:03:04.635Z,99377.97
2023-03-27T00:04:09.067Z,99383.28
2023-03-27T00:05:12.036Z,99384.16
2023-03-27T00:06:16.497Z,99381.50
2023-03-27T00:07:19.921Z,99392.31
2023-03-27T00:08:22.522Z,99388.81
2023-03-27T00:09:24.054Z,99392.09
2023-03-27T00:10:26.530Z,99396.13
2023-03-27T00:11:28.100Z,99401.53
2023-03-27T00:12:30.573Z,99408.84
2023-03-27T00:13:32.209Z,99402.06
2023-03-27T00:14:36.249Z,99405.84
2023-03-27T00:15:39.376Z,99406.41
2023-03-27T00:16:42.054Z,99402.81
2023-03-27T00:17:46.687Z,99403.06
2023-03-27T00:18:49.326Z,99402.00
2023-03-27T00:19:50.895Z,99399.06
2023-03-27T00:20:55.061Z,99411.22
2023-03-27T00:21:56.759Z,99406.56
2023-03-27T00:22:59.263Z,99413.59
2023-03-27T00:24:00.929Z,99411.53
2023-03-27T00:25:04.002Z,99409.38
2023-03-27T00:26:06.206Z,99406.38
2023-03-27T00:27:09.113Z,99406.63
2023-03-27T00:28:10.756Z,99409.03
2023-03-27T00:29:14.057Z,99414.69
2023-03-27T00:30:15.889Z,99409.50
2023-03-27T00:31:18.467Z,99417.78
2023-03-27T00:32:20.496Z,99424.63
2023-03-27T00:33:23.600Z,99419.03
2023-03-27T00:34:25.280Z,99423.38
2023-03-27T00:35:30.134Z,99425.03
2023-03-27T00:36:32.961Z,99425.31
2023-03-27T00:37:35.505Z,99427.75
2023-03-27T00:38:37.225Z,99426.16
2023-03-27T00:39:40.733Z,99424.78
2023-03-27T00:41:06.215Z,99438.56
2023-03-27T00:42:09.959Z,99443.44
2023-03-27T00:43:21.419Z,99441.28
2023-03-27T00:44:25.025Z,99441.81
2023-03-27T00:45:30.480Z,99444.84
2023-03-27T00:46:38.684Z,99443.22
2023-03-27T00:47:41.592Z,99445.59
2023-03-27T00:48:46.304Z,99440.38
2023-03-27T00:49:50.757Z,99444.50
2023-03-27T00:50:53.673Z,99447.63
2023-03-27T00:51:58.425Z,99450.66
2023-03-27T00:53:04.671Z,99450.63
2023-03-27T00:54:07.459Z,99453.09
2023-03-27T00:55:14.621Z,99453.69
2023-03-27T00:56:19.058Z,99456.09
2023-03-27T00:57:22.265Z,99462.25
2023-03-27T00:58:30.089Z,99461.38
2023-03-27T00:59:37.847Z,99461.88
2023-03-27T01:00:40.472Z,99459.34
2023-03-27T01:01:43.852Z,99463.13
2023-03-27T01:02:50.358Z,99470.47
2023-03-27T01:03:54.059Z,99469.06
2023-03-27T01:04:57.657Z,99468.31
2023-03-27T01:06:01.926Z,99473.72
2023-03-27T01:07:07.316Z,99473.13
2023-03-27T01:08:11.763Z,99475.53
2023-03-27T01:09:21.243Z,99483.38
2023-03-27T01:10:30.423Z,99482.97
2023-03-27T01:11:43.461Z,99479.03
2023-03-27T01:12:53.422Z,99487.97
2023-03-27T01:14:06.661Z,99486.06
2023-03-27T01:15:29.846Z,99487.41
2023-03-27T01:16:40.352Z,99496.34
2023-03-27T01:17:56.663Z,99500.91
2023-03-27T01:19:26.231Z,99502.47
2023-03-27T01:20:54.462Z,99490.94
2023-03-27T01:22:22.376Z,99489.81
2023-03-27T01:24:14.464Z,99497.94
2023-03-27T01:25:51.097Z,99509.47
2023-03-27T01:27:16.251Z,99519.50
2023-03-27T01:28:45.944Z,99519.78
2023-03-27T01:30:11.978Z,99524.34
2023-03-27T01:31:30.545Z,99518.94
2023-03-27T01:32:53.301Z,99531.13
2023-03-27T01:34:21.707Z,99525.47
2023-03-27T01:35:37.039Z,99532.22
2023-03-27T01:37:05.476Z,99535.22
2023-03-27T01:38:25.227Z,99533.03
2023-03-27T01:39:51.292Z,99545.47
2023-03-27T01:41:01.308Z,99553.63
2023-03-27T01:42:14.385Z,99554.41
2023-03-27T01:43:21.489Z,99554.13
2023-03-27T01:44:43.115Z,99553.34
2023-03-27T01:45:53.747Z,99558.44
2023-03-27T01:47:03.248Z,99560.06
2023-03-27T01:48:12.781Z,99556.25
2023-03-27T01:49:20.296Z,99564.38
2023-03-27T01:50:27.184Z,99560.03
2023-03-27T01:51:35.714Z,99561.97
2023-03-27T01:52:43.481Z,99553.59
2023-03-27T01:53:49.636Z,99558.44
2023-03-27T01:54:58.276Z,99558.47
2023-03-27T01:56:05.165Z,99575.78
2023-03-27T01:57:16.226Z,99574.13
2023-03-27T01:58:23.734Z,99574.19
2023-03-27T01:59:29.001Z,99577.69
2023-03-27T02:00:51.920Z,99576.81
2023-03-27T02:02:00.832Z,99589.31
2023-03-27T02:03:11.185Z,99581.75
2023-03-27T02:04:17.986Z,99589.06
2023-03-27T02:05:26.123Z,99597.19
2023-03-27T02:06:33.496Z,99593.59
2023-03-27T02:07:39.836Z,99597.63
2023-03-27T02:08:46.691Z,99595.69
2023-03-27T02:09:52.002Z,99589.44
2023-03-27T02:10:58.680Z,99595.94
2023-03-27T02:12:07.569Z,99600.31
2023-03-27T02:13:18.500Z,99603.00
2023-03-27T02:14:24.364Z,99607.00
2023-03-27T02:15:31.817Z,99604.59
2023-03-27T02:16:41.260Z,99605.75
2023-03-27T02:17:48.013Z,99600.56
2023-03-27T02:18:56.796Z,99616.00
2023-03-27T02:20:09.778Z,99604.66
2023-03-27T02:21:14.281Z,99612.06
2023-03-27T02:22:16.219Z,99613.06
2023-03-27T02:23:18.773Z,99625.50
2023-03-27T02:24:20.398Z,99620.88
2023-03-27T02:25:26.043Z,99631.22
2023-03-27T02:26:30.509Z,99623.09
2023-03-27T02:27:41.436Z,99628.19
2023-03-27T02:28:56.175Z,99634.69
2023-03-27T02:30:06.121Z,99627.66
2023-03-27T02:31:32.900Z,99640.38
2023-03-27T02:32:47.408Z,99640.09
2023-03-27T02:34:08.755Z,99640.56
2023-03-27T02:35:28.425Z,99641.41
2023-03-27T02:36:40.651Z,99646.88
2023-03-27T02:37:55.508Z,99641.22
2023-03-27T02:39:04.377Z,99648.50
2023-03-27T02:40:14.116Z,99651.97
2023-03-27T02:41:24.208Z,99654.13
2023-03-27T02:42:34.178Z,99654.44
2023-03-27T02:43:44.195Z,99658.19
2023-03-27T02:44:51.718Z,99665.25
2023-03-27T02:45:59.874Z,99672.31
2023-03-27T02:47:07.330Z,99672.25
2023-03-27T02:48:16.286Z,99679.03
2023-03-27T02:49:23.548Z,99680.03
2023-03-27T02:50:29.246Z,99680.88
2023-03-27T02:51:34.761Z,99673.03
2023-03-27T02:52:42.133Z,99687.56
2023-03-27T02:53:47.966Z,99688.13
2023-03-27T02:54:54.748Z,99687.06
2023-03-27T02:56:00.256Z,99690.25
2023-03-27T02:57:06.775Z,99684.78
2023-03-27T02:58:15.091Z,99695.06
2023-03-27T02:59:23.520Z,99687.59
2023-03-27T03:00:28.318Z,99696.25
2023-03-27T03:01:33.458Z,99693.28
2023-03-27T03:02:37.629Z,99703.28
2023-03-27T03:03:45.349Z,99705.47
2023-03-27T03:04:57.160Z,99712.03
2023-03-27T03:06:00.415Z,99715.78
2023-03-27T03:07:04.348Z,99706.91
2023-03-27T03:08:10.049Z,99712.31
2023-03-27T03:09:14.861Z,99718.44
2023-03-27T03:10:17.844Z,99714.63
2023-03-27T03:11:21.878Z,99725.06
2023-03-27T03:12:24.438Z,99722.25
2023-03-27T03:13:27.271Z,99711.50
2023-03-27T03:14:33.084Z,99715.06
2023-03-27T03:15:34.678Z,99717.03
2023-03-27T03:16:37.167Z,99713.88
2023-03-27T03:17:41.782Z,99716.94
2023-03-27T03:18:44.307Z,99723.41
2023-03-27T03:19:45.851Z,99729.56
2023-03-27T03:20:48.345Z,99732.84
2023-03-27T03:21:50.725Z,99696.25
2023-03-27T03:22:53.298Z,99737.53
2023-03-27T03:23:57.490Z,99728.50
2023-03-27T03:25:01.277Z,99741.22
2023-03-27T03:26:03.104Z,99743.63
2023-03-27T03:27:05.963Z,99748.25
2023-03-27T03:28:08.249Z,99755.00
2023-03-27T03:29:13.009Z,99760.53
2023-03-27T03:30:17.496Z,99761.31
2023-03-27T03:31:22.490Z,99764.28
2023-03-27T03:32:24.054Z,99762.69
2023-03-27T03:33:28.120Z,99771.78
2023-03-27T03:34:30.427Z,99771.44
2023-03-27T03:35:34.760Z,99775.84
2023-03-27T03:36:36.410Z,99777.44
2023-03-27T03:37:39.377Z,99786.03
2023-03-27T03:38:42.193Z,99776.19
2023-03-27T03:39:43.856Z,99780.72
2023-03-27T03:40:46.574Z,99797.56
2023-03-27T03:41:48.796Z,99791.94
2023-03-27T03:42:53.022Z,99791.38
2023-03-27T03:43:54.530Z,99803.00
2023-03-27T03:44:58.371Z,99798.47
2023-03-27T03:46:00.338Z,99809.56
2023-03-27T03:47:03.044Z,99816.19
2023-03-27T03:48:04.863Z,99812.94
2023-03-27T03:49:07.551Z,99817.66
2023-03-27T03:50:10.391Z,99816.56
2023-03-27T03:51:13.250Z,99823.31
2023-03-27T03:52:14.874Z,99825.84
2023-03-27T03:53:19.244Z,99837.66
2023-03-27T03:54:20.827Z,99836.19
2023-03-27T03:55:25.640Z,99840.25
2023-03-27T03:56:29.415Z,99837.88
2023-03-27T03:57:32.046Z,99843.31
2023-03-27T03:58:34.417Z,99850.06
2023-03-27T03:59:37.656Z,99858.06
2023-03-27T04:00:40.601Z,99860.84
2023-03-27T04:01:43.212Z,99858.75
2023-03-27T04:02:45.580Z,99863.63
2023-03-27T04:03:49.174Z,99863.97
2023-03-27T04:04:50.818Z,99862.41
2023-03-27T04:05:53.505Z,99865.78
2023-03-27T04:06:58.310Z,99869.16
2023-03-27T04:08:01.186Z,99874.84
2023-03-27T04:09:02.690Z,99872.31
2023-03-27T04:10:05.825Z,99881.28
2023-03-27T04:11:07.346Z,99875.69
2023-03-27T04:12:10.005Z,99888.31
2023-03-27T04:13:14.615Z,99886.53
2023-03-27T04:14:17.298Z,99887.38
2023-03-27T04:15:19.050Z,99894.03
2023-03-27T04:16:23.619Z,99896.41
2023-03-27T04:17:26.473Z,99903.78
2023-03-27T04:18:30.471Z,99899.59
2023-03-27T04:19:32.059Z,99906.34
2023-03-27T04:20:35.295Z,99902.19
2023-03-27T04:21:37.563Z,99905.00
2023-03-27T04:22:46.316Z,99909.78
2023-03-27T04:23:48.281Z,99922.28
2023-03-27T04:24:51.708Z,99916.75
2023-03-27T04:25:53.653Z,99924.56
2023-03-27T04:26:58.286Z,99921.78
2023-03-27T04:28:02.236Z,99925.63
2023-03-27T04:29:10.553Z,99941.59
2023-03-27T04:30:14.155Z,99928.69
2023-03-27T04:31:17.229Z,99931.66
2023-03-27T04:32:20.124Z,99943.16
2023-03-27T04:33:22.901Z,99937.19
2023-03-27T04:34:27.232Z,99934.38
2023-03-27T04:35:29.836Z,99943.00
2023-03-27T04:36:31.661Z,99940.72
2023-03-27T04:37:34.121Z,99933.25
2023-03-27T04:38:36.984Z,99938.84
2023-03-27T04:39:45.708Z,99941.47
2023-03-27T04:40:49.112Z,99943.16
2023-03-27T04:41:53.807Z,99942.31
2023-03-27T04:42:56.505Z,99951.91
2023-03-27T04:43:58.975Z,99940.03
2023-03-27T04:45:01.582Z,99940.88
2023-03-27T04:46:06.813Z,99949.06
2023-03-27T04:47:09.138Z,99953.38
2023-03-27T04:48:13.167Z,99947.09
2023-03-27T04:49:19.050Z,99960.81
2023-03-27T04:50:21.856Z,99962.38
2023-03-27T04:51:26.530Z,99963.13
2023-03-27T04:52:29.722Z,99958.03
2023-03-27T04:53:32.249Z,99966.00
2023-03-27T04:54:35.129Z,99973.66
2023-03-27T04:55:38.132Z,99957.38
2023-03-27T04:56:41.739Z,99972.69
2023-03-27T04:57:57.544Z,99978.16
2023-03-27T04:59:00.308Z,99980.50
2023-03-27T05:00:11.592Z,99983.28
2023-03-27T05:01:17.506Z,99980.91
2023-03-27T05:02:19.300Z,99985.47
2023-03-27T05:03:23.887Z,99982.22
2023-03-27T05:04:26.627Z,99984.78
2023-03-27T05:05:29.254Z,99997.19
2023-03-27T05:06:32.968Z,99996.00
2023-03-27T05:07:35.964Z,100001.84
2023-03-27T05:08:37.475Z,99998.00
2023-03-27T05:09:40.290Z,100007.31
2023-03-27T05:10:42.185Z,100004.41
2023-03-27T05:11:49.460Z,100005.69
2023-03-27T05:12:56.430Z,99997.16
2023-03-27T05:14:15.081Z,100010.66
2023-03-27T05:15:18.130Z,100018.34
2023-03-27T05:16:20.889Z,100015.41
2023-03-27T05:17:25.775Z,100024.97
2023-03-27T05:18:30.750Z,100026.13
2023-03-27T05:19:32.452Z,100037.00
2023-03-27T05:20:35.089Z,100046.31
2023-03-27T05:21:37.307Z,100051.50
2023-03-27T05:22:39.988Z,100050.75
2023-03-27T05:23:42.177Z,100046.81
2023-03-27T05:24:47.248Z,100058.66
2023-03-27T05:25:59.653Z,100058.19
2023-03-27T05:27:02.025Z,100056.78
2023-03-27T05:28:04.481Z,100059.16
2023-03-27T05:29:06.418Z,100061.94
2023-03-27T05:30:10.107Z,100062.09
2023-03-27T05:31:12.456Z,100074.22
2023-03-27T05:32:14.993Z,100073.56
2023-03-27T05:33:17.568Z,100077.41
2023-03-27T05:34:21.867Z,100083.47
2023-03-27T05:35:23.997Z,100076.66
2023-03-27T05:36:27.581Z,100080.31
2023-03-27T05:37:29.119Z,100084.25
2023-03-27T05:38:33.100Z,100090.06
2023-03-27T05:39:36.987Z,100088.66
2023-03-27T05:40:40.151Z,100092.25
2023-03-27T05:41:43.240Z,100081.16
2023-03-27T05:42:46.299Z,100088.09
2023-03-27T05:43:51.799Z,100082.16
2023-03-27T05:44:53.487Z,100091.28
2023-03-27T05:45:56.003Z,100085.00
2023-03-27T05:46:57.634Z,100088.81
2023-03-27T05:48:02.222Z,100088.78
2023-03-27T05:49:05.185Z,100102.94
2023-03-27T05:50:10.036Z,100096.31
2023-03-27T05:51:12.598Z,100102.53
2023-03-27T05:52:14.480Z,100105.25
2023-03-27T05:53:16.973Z,100106.22
2023-03-27T05:54:18.447Z,100099.72
2023-03-27T05:55:20.994Z,100106.81
2023-03-27T05:56:23.623Z,100113.97
2023-03-27T05:57:25.437Z,100126.31
2023-03-27T05:58:28.120Z,100125.28
2023-03-27T05:59:29.615Z,100122.19
2023-03-27T06:00:34.245Z,100122.41
2023-03-27T06:01:36.194Z,100124.00
2023-03-27T06:02:39.637Z,100130.84
2023-03-27T06:03:43.498Z,100129.38
2023-03-27T06:04:46.312Z,100129.31
2023-03-27T06:05:50.033Z,100125.31
2023-03-27T06:06:52.476Z,100129.88
2023-03-27T06:07:54.011Z,100131.28
2023-03-27T06:08:57.053Z,100135.38
2023-03-27T06:09:58.556Z,100134.59
2023-03-27T06:11:01.160Z,100127.75
2023-03-27T06:12:02.854Z,100142.25
2023-03-27T06:13:08.653Z,100139.91
2023-03-27T06:14:11.373Z,100142.78
2023-03-27T06:15:12.930Z,100137.47
2023-03-27T06:16:16.822Z,100135.31
2023-03-27T06:17:18.360Z,100144.19
2023-03-27T06:18:21.528Z,100145.78
2023-03-27T06:19:24.457Z,100145.88
2023-03-27T06:20:27.643Z,100155.78
2023-03-27T06:21:31.481Z,100149.03
2023-03-27T06:22:32.969Z,100147.16
2023-03-27T06:23:35.451Z,100155.66
2023-03-27T06:24:36.988Z,100157.91
2023-03-27T06:25:40.275Z,100150.22
2023-03-27T06:26:42.708Z,100168.09
2023-03-27T06:27:45.417Z,100149.41
2023-03-27T06:28:48.542Z,100160.19
2023-03-27T06:29:50.101Z,100159.34
2023-03-27T06:30:52.641Z,100168.25
2023-03-27T06:31:57.228Z,100156.66
2023-03-27T06:33:00.869Z,100164.47
2023-03-27T06:34:02.544Z,100168.72
2023-03-27T06:35:05.663Z,100166.91
2023-03-27T06:36:10.182Z,100168.00
2023-03-27T06:37:13.191Z,100163.34
2023-03-27T06:38:38.088Z,100178.75
2023-03-27T06:39:39.809Z,100166.84
2023-03-27T06:40:42.923Z,100177.56
2023-03-27T06:41:44.402Z,100179.94
2023-03-27T06:42:50.695Z,100175.59
2023-03-27T06:43:53.251Z,100184.09
2023-03-27T06:44:54.783Z,100180.59
2023-03-27T06:45:58.200Z,100180.16
2023-03-27T06:46:59.910Z,100185.53
2023-03-27T06:48:16.163Z,100185.25
2023-03-27T06:49:22.655Z,100188.78
2023-03-27T06:50:26.147Z,100182.59
2023-03-27T06:51:28.658Z,100186.41
2023-03-27T06:52:31.588Z,100186.19
2023-03-27T06:53:38.076Z,100186.94
2023-03-27T06:54:40.024Z,100189.38
2023-03-27T06:55:42.515Z,100194.34
2023-03-27T06:56:45.019Z,100184.94
2023-03-27T06:57:48.783Z,100194.53
2023-03-27T06:58:51.328Z,100183.91
2023-03-27T06:59:53.408Z,100194.38
2023-03-27T07:00:55.961Z,100188.84
2023-03-27T07:01:57.470Z,100191.78
2023-03-27T07:03:02.772Z,100195.34
2023-03-27T07:04:05.085Z,100190.91
2023-03-27T07:05:08.383Z,100199.13
2023-03-27T07:06:11.118Z,100191.13
2023-03-27T07:07:12.963Z,100201.75
2023-03-27T07:08:23.511Z,100200.28
2023-03-27T07:09:30.611Z,100200.59
2023-03-27T07:10:32.689Z,100201.25
2023-03-27T07:11:35.130Z,100207.81
2023-03-27T07:12:36.936Z,100204.06
2023-03-27T07:13:41.262Z,100203.38
2023-03-27T07:14:43.039Z,100198.09
2023-03-27T07:15:46.017Z,100200.78
2023-03-27T07:16:47.783Z,100198.16
2023-03-27T07:17:54.685Z,100194.63
2023-03-27T07:19:00.878Z,100190.63
2023-03-27T07:20:06.225Z,100200.50
2023-03-27T07:21:08.800Z,100203.88
2023-03-27T07:22:10.550Z,100203.78
2023-03-27T07:23:13.026Z,100203.50
2023-03-27T07:24:16.947Z,100183.25
2023-03-27T07:25:19.479Z,100198.16
2023-03-27T07:26:22.124Z,100205.94
2023-03-27T07:27:24.135Z,100199.81
2023-03-27T07:28:26.830Z,100202.09
2023-03-27T07:29:28.382Z,100198.00
2023-03-27T07:30:30.987Z,100215.50
2023-03-27T07:31:54.881Z,100218.28
2023-03-27T07:32:58.083Z,100202.31
2023-03-27T07:34:01.057Z,100213.78
2023-03-27T07:35:05.406Z,100221.59
2023-03-27T07:36:09.542Z,100210.50
2023-03-27T07:37:11.387Z,100217.88
2023-03-27T07:38:14.537Z,100216.81
2023-03-27T07:39:17.610Z,100225.59
2023-03-27T07:40:26.586Z,100230.16
2023-03-27T07:41:39.757Z,100231.97
2023-03-27T07:42:45.141Z,100227.81
2023-03-27T07:43:47.856Z,100225.56
2023-03-27T07:44:50.545Z,100237.38
2023-03-27T07:45:53.134Z,100233.03
2023-03-27T07:46:54.642Z,100232.06
2023-03-27T07:48:05.847Z,100230.06
2023-03-27T07:49:09.361Z,100218.63
2023-03-27T07:50:11.606Z,100235.97
2023-03-27T07:51:14.445Z,100224.41
2023-03-27T07:52:18.311Z,100235.81
2023-03-27T07:53:33.975Z,100240.41
2023-03-27T07:54:38.871Z,100236.31
2023-03-27T07:55:41.883Z,100237.19
2023-03-27T07:56:44.516Z,100243.75
2023-03-27T07:57:59.886Z,100245.78
2023-03-27T07:59:03.939Z,100240.16
2023-03-27T08:00:11.552Z,100254.66
2023-03-27T08:01:14.384Z,100243.09
2023-03-27T08:02:15.989Z,100244.59
2023-03-27T08:03:20.124Z,100248.50
2023-03-27T08:04:23.769Z,100247.53
2023-03-27T08:05:26.719Z,100245.31
2023-03-27T08:06:29.179Z,100253.25
2023-03-27T08:07:32.270Z,100240.56
2023-03-27T08:08:34.800Z,100238.69
2023-03-27T08:09:38.996Z,100252.84
2023-03-27T08:10:41.276Z,100251.66
2023-03-27T08:11:44.313Z,100239.91
2023-03-27T08:12:46.817Z,100242.66
2023-03-27T08:13:48.393Z,100236.16
2023-03-27T08:14:50.836Z,100247.78
2023-03-27T08:16:02.981Z,100252.53
2023-03-27T08:17:15.228Z,100256.47
2023-03-27T08:18:19.008Z,100255.47
2023-03-27T08:19:21.320Z,100262.34
2023-03-27T08:20:24.370Z,100257.19
2023-03-27T08:21:26.188Z,100262.44
2023-03-27T08:22:28.715Z,100266.91
2023-03-27T08:23:31.184Z,100255.75
2023-03-27T08:24:33.769Z,100263.56
2023-03-27T08:25:36.761Z,100258.75
2023-03-27T08:26:39.233Z,100266.28
2023-03-27T08:27:40.811Z,100265.00
2023-03-27T08:28:43.649Z,100265.44
2023-03-27T08:29:46.272Z,100256.00
2023-03-27T08:30:47.819Z,100267.38
2023-03-27T08:31:50.346Z,100256.13
2023-03-27T08:32:52.815Z,100264.53
2023-03-27T08:33:54.633Z,100276.94
2023-03-27T08:34:57.201Z,100264.16
2023-03-27T08:35:59.516Z,100262.47
2023-03-27T08:37:03.114Z,100264.34
2023-03-27T08:38:07.338Z,100267.16
2023-03-27T08:39:13.905Z,100269.78
2023-03-27T08:40:20.576Z,100269.66
2023-03-27T08:41:30.619Z,100269.00
2023-03-27T08:42:38.037Z,100265.72
2023-03-27T08:43:42.846Z,100266.88
2023-03-27T08:44:45.607Z,100285.47
2023-03-27T08:45:53.847Z,100275.16
2023-03-27T08:47:01.347Z,100280.41
2023-03-27T08:48:13.549Z,100273.41
2023-03-27T08:49:17.481Z,100282.72
2023-03-27T08:50:31.572Z,100283.91
2023-03-27T08:51:39.166Z,100281.34
2023-03-27T08:52:43.195Z,100279.84
2023-03-27T08:53:52.308Z,100282.81
2023-03-27T08:54:59.573Z,100287.53
2023-03-27T08:56:03.059Z,100283.66
2023-03-27T08:57:18.300Z,100288.13
2023-03-27T08:58:22.753Z,100287.56
2023-03-27T08:59:26.419Z,100287.78
2023-03-27T09:00:35.348Z,100286.38
2023-03-27T09:01:41.604Z,100288.34
2023-03-27T09:02:51.475Z,100296.22
2023-03-27T09:04:01.674Z,100286.75
2023-03-27T09:05:09.906Z,100294.03
2023-03-27T09:06:23.459Z,100295.34
2023-03-27T09:07:34.281Z,100288.41
2023-03-27T09:08:42.166Z,100302.19
2023-03-27T09:09:55.832Z,100308.72
2023-03-27T09:11:03.557Z,100286.88
2023-03-27T09:12:21.513Z,100301.31
2023-03-27T09:13:28.581Z,100291.84
2023-03-27T09:14:36.651Z,100307.59
2023-03-27T09:15:44.202Z,100295.25
2023-03-27T09:16:49.502Z,100305.69
2023-03-27T09:18:01.370Z,100307.47
2023-03-27T09:19:13.543Z,100301.03
2023-03-27T09:20:25.335Z,100308.81
2023-03-27T09:21:35.075Z,100299.25
2023-03-27T09:22:43.933Z,100312.19
2023-03-27T09:23:47.560Z,100315.06
2023-03-27T09:24:53.213Z,100297.59
2023-03-27T09:25:57.829Z,100309.91
2023-03-27T09:27:07.659Z,100304.97
2023-03-27T09:28:18.789Z,100305.84
2023-03-27T09:29:22.509Z,100310.28
2023-03-27T09:30:27.860Z,100307.44
2023-03-27T09:31:33.626Z,100309.75
2023-03-27T09:32:35.909Z,100309.91
2023-03-27T09:33:41.705Z,100320.09
2023-03-27T09:34:45.050Z,100319.81
2023-03-27T09:35:47.504Z,100315.88
2023-03-27T09:36:50.142Z,100316.00
2023-03-27T09:37:58.454Z,100321.94
2023-03-27T09:39:07.656Z,100320.25
2023-03-27T09:40:23.352Z,100319.94
2023-03-27T09:41:30.428Z,100316.16
2023-03-27T09:42:37.610Z,100322.00
2023-03-27T09:43:44.704Z,100329.53
2023-03-27T09:44:50.431Z,100324.69
2023-03-27T09:45:55.134Z,100324.31
2023-03-27T09:47:02.416Z,100326.16
2023-03-27T09:48:11.988Z,100325.84
2023-03-27T09:49:17.071Z,100328.31
2023-03-27T09:50:27.365Z,100325.38
2023-03-27T09:51:42.377Z,100331.78
2023-03-27T09:52:45.017Z,100320.97
2023-03-27T09:53:58.434Z,100322.91
2023-03-27T09:55:02.716Z,100332.28
2023-03-27T09:56:12.754Z,100329.19
2023-03-27T09:57:14.461Z,100328.22
2023-03-27T09:58:30.476Z,100317.72
2023-03-27T09:59:37.949Z,100329.72
2023-03-27T10:00:40.592Z,100318.88
2023-03-27T10:01:47.590Z,100329.63
2023-03-27T10:02:49.103Z,100338.78
2023-03-27T10:03:53.509Z,100339.75
2023-03-27T10:05:00.740Z,100352.81
2023-03-27T10:06:08.465Z,100349.91
2023-03-27T10:07:24.142Z,100355.25
2023-03-27T10:08:38.028Z,100363.66
2023-03-27T10:09:41.050Z,100364.97
2023-03-27T10:10:45.379Z,100363.03
2023-03-27T10:11:50.299Z,100360.19
2023-03-27T10:12:55.838Z,100359.28
2023-03-27T10:14:00.789Z,100366.81
2023-03-27T10:15:06.896Z,100361.28
2023-03-27T10:16:11.895Z,100363.22
2023-03-27T10:17:23.588Z,100354.94
2023-03-27T10:18:27.864Z,100366.22
2023-03-27T10:19:35.474Z,100354.94
2023-03-27T10:20:37.448Z,100352.44
2023-03-27T10:21:43.103Z,100349.94
2023-03-27T10:22:54.704Z,100344.84
2023-03-27T10:24:04.205Z,100344.50
2023-03-27T10:25:16.662Z,100335.94
2023-03-27T10:26:21.361Z,100337.34
2023-03-27T10:27:27.083Z,100344.28
2023-03-27T10:28:34.430Z,100358.44
2023-03-27T10:29:40.537Z,100359.72
2023-03-27T10:30:44.272Z,100351.19
2023-03-27T10:31:53.616Z,100356.00
2023-03-27T10:32:55.535Z,100356.53
2023-03-27T10:34:00.878Z,100349.91
2023-03-27T10:35:11.633Z,100367.81
2023-03-27T10:36:13.258Z,100362.56
2023-03-27T10:37:23.001Z,100369.09
2023-03-27T10:38:27.719Z,100360.50
2023-03-27T10:39:37.394Z,100350.06
2023-03-27T10:40:42.073Z,100353.97
2023-03-27T10:41:48.558Z,100353.06
2023-03-27T10:42:50.822Z,100356.31
2023-03-27T10:43:54.211Z,100351.69
2023-03-27T10:44:57.563Z,100355.75
2023-03-27T10:46:05.845Z,100356.97
2023-03-27T10:47:17.980Z,100345.16
2023-03-27T10:48:33.555Z,100352.81
2023-03-27T10:49:44.443Z,100350.81
2023-03-27T10:50:53.352Z,100364.88
2023-03-27T10:52:08.510Z,100361.41
2023-03-27T10:53:17.997Z,100366.16
2023-03-27T10:54:35.607Z,100365.91
2023-03-27T10:55:53.913Z,100371.47
2023-03-27T10:57:02.408Z,100375.25
2023-03-27T10:58:34.484Z,100376.38
2023-03-27T10:59:44.493Z,100387.44
2023-03-27T11:00:54.121Z,100397.59
2023-03-27T11:02:01.203Z,100387.22
2023-03-27T11:03:12.231Z,100400.56
2023-03-27T11:04:23.135Z,100395.16
2023-03-27T11:05:28.068Z,100394.81
2023-03-27T11:06:33.453Z,100389.88
2023-03-27T11:07:41.404Z,100401.81
2023-03-27T11:08:53.118Z,100398.72
2023-03-27T11:10:05.541Z,100395.53
2023-03-27T11:11:14.934Z,100398.00
2023-03-27T11:12:19.860Z,100405.47
2023-03-27T11:13:27.974Z,100401.53
2023-03-27T11:14:45.423Z,100402.91
2023-03-27T11:15:54.168Z,100394.47
2023-03-27T11:17:04.158Z,100386.13
2023-03-27T11:18:16.982Z,100390.41
2023-03-27T11:19:36.160Z,100377.72
2023-03-27T11:20:45.801Z,100386.00
2023-03-27T11:21:53.565Z,100383.63
2023-03-27T11:23:00.910Z,100378.94
2023-03-27T11:24:07.061Z,100387.75
2023-03-27T11:25:19.787Z,100380.50
2023-03-27T11:26:28.320Z,100390.16
2023-03-27T11:27:37.270Z,100385.59
2023-03-27T11:28:44.525Z,100393.56
2023-03-27T11:29:54.768Z,100395.59
2023-03-27T11:31:12.980Z,100394.16
2023-03-27T11:32:24.474Z,100398.25
2023-03-27T11:33:39.222Z,100410.28
2023-03-27T11:34:48.526Z,100413.56
2023-03-27T11:35:58.158Z,100424.34
2023-03-27T11:37:05.679Z,100442.88
2023-03-27T11:38:17.248Z,100452.59
2023-03-27T11:39:27.093Z,100468.66
2023-03-27T11:40:34.193Z,100455.13
2023-03-27T11:41:36.914Z,100449.72
2023-03-27T11:42:43.478Z,100448.13
2023-03-27T11:43:45.976Z,100438.88
2023-03-27T11:44:48.701Z,100436.09
2023-03-27T11:45:59.712Z,100435.53
2023-03-27T11:47:27.654Z,100430.22
2023-03-27T11:48:44.171Z,100430.88
2023-03-27T11:50:09.438Z,100420.97
2023-03-27T11:51:20.599Z,100436.41
2023-03-27T11:52:36.611Z,100426.88
2023-03-27T11:54:00.226Z,100429.81
2023-03-27T11:55:11.489Z,100422.41
2023-03-27T11:56:38.650Z,100409.84
2023-03-27T11:57:54.678Z,100408.22
2023-03-27T11:59:20.489Z,100412.75
2023-03-27T12:00:36.269Z,100413.81
2023-03-27T12:01:43.805Z,100397.63
2023-03-27T12:03:06.816Z,100400.63
2023-03-27T12:04:27.160Z,100404.53
2023-03-27T12:05:43.143Z,100396.22
2023-03-27T12:06:56.984Z,100404.88
2023-03-27T12:08:09.703Z,100405.00
2023-03-27T12:09:47.691Z,100411.47
2023-03-27T12:10:53.011Z,100401.09
2023-03-27T12:12:02.758Z,100395.06
2023-03-27T12:13:41.618Z,100394.47
2023-03-27T12:15:00.270Z,100395.50
2023-03-27T12:16:19.744Z,100394.91
2023-03-27T12:17:35.416Z,100398.94
2023-03-27T12:19:03.822Z,100398.84
2023-03-27T12:20:30.055Z,100397.31
2023-03-27T12:21:46.477Z,100397.47
2023-03-27T12:22:57.552Z,100401.72
2023-03-27T12:24:22.175Z,100405.06
2023-03-27T12:25:43.705Z,100425.50
2023-03-27T12:27:32.682Z,100453.50
2023-03-27T12:28:49.850Z,100460.97
2023-03-27T12:30:04.987Z,100456.19
2023-03-27T12:31:27.512Z,100466.66
2023-03-27T12:33:00.447Z,100468.78
2023-03-27T12:34:06.146Z,100460.78
2023-03-27T12:35:21.426Z,100440.78
2023-03-27T12:36:27.310Z,100440.53
2023-03-27T12:37:36.794Z,100435.88
2023-03-27T12:38:41.908Z,100432.72
2023-03-27T12:39:51.882Z,100430.09
2023-03-27T12:41:03.136Z,100417.84
2023-03-27T12:42:14.486Z,100413.75
2023-03-27T12:43:39.682Z,100419.91
2023-03-27T12:45:13.330Z,100423.59
2023-03-27T12:46:34.641Z,100419.91
2023-03-27T12:47:36.216Z,100421.47
2023-03-27T12:48:49.502Z,100421.31
2023-03-27T12:50:01.117Z,100430.16
2023-03-27T12:51:13.733Z,100448.09
2023-03-27T12:52:18.636Z,100444.06
2023-03-27T12:53:49.089Z,100448.34
2023-03-27T12:55:29.637Z,100456.44